Time;durP1;ratioP1;P1;durP2;ratioP2;P2;SDS_P1;SDS_P2;PMS_P1;PMS_P2;Temp;Humidity;BMP_temperature;BMP_pressure;BME280_temperature;BME280_humidity;BME280_pressure;Samples;Min_cycle;Max_cycle;Signal;HPM_P1;HPM_P2
2020/12/10 00:00:10;;;;;;;19.42;11.35;;;3.10;99.00;;;;;;5016119;28;20057;-76
2020/12/10 00:02:36;;;;;;;22.17;12.00;;;3.10;99.00;;;;;;5013393;28;20456;-75
2020/12/10 00:05:03;;;;;;;24.38;12.88;;;3.10;98.90;;;;;;5013451;28;20077;-74
2020/12/10 00:07:29;;;;;;;20.77;12.13;;;3.20;98.80;;;;;;5019918;28;20065;-75
2020/12/10 00:09:55;;;;;;;23.30;11.65;;;3.20;98.60;;;;;;5015882;28;20115;-75
2020/12/10 00:12:21;;;;;;;21.38;13.00;;;3.20;98.70;;;;;;5013947;28;20044;-74
2020/12/10 00:14:53;;;;;;;24.70;12.40;;;3.20;98.50;;;;;;5023180;28;20434;-75
2020/12/10 00:17:25;;;;;;;21.90;12.57;;;3.20;98.50;;;;;;5012930;28;20061;-74
2020/12/10 00:19:51;;;;;;;20.05;11.60;;;3.20;98.80;;;;;;5020653;28;20475;-74
2020/12/10 00:22:17;;;;;;;22.58;13.25;;;3.10;98.50;;;;;;5019130;28;20491;-75
2020/12/10 00:24:43;;;;;;;22.42;12.27;;;3.10;98.90;;;;;;5019672;28;20102;-75
2020/12/10 00:27:09;;;;;;;22.90;12.45;;;3.10;98.80;;;;;;5021659;28;20129;-75
2020/12/10 00:29:35;;;;;;;25.27;13.30;;;3.10;98.70;;;;;;5014615;28;20176;-75
2020/12/10 00:32:01;;;;;;;24.15;13.05;;;3.10;98.80;;;;;;5019621;28;20095;-77
2020/12/10 00:34:27;;;;;;;19.70;11.68;;;3.00;98.90;;;;;;5023060;28;20463;-77
2020/12/10 00:36:52;;;;;;;23.75;12.25;;;3.10;98.90;;;;;;5019931;28;20061;-75
2020/12/10 00:39:18;;;;;;;21.95;12.55;;;3.00;98.80;;;;;;5007473;28;20041;-75
2020/12/10 00:41:44;;;;;;;25.90;13.60;;;3.30;99.20;;;;;;5016803;28;20116;-75
2020/12/10 00:44:09;;;;;;;25.50;13.88;;;3.00;98.60;;;;;;5026313;28;20037;-74
2020/12/10 00:46:39;;;;;;;25.15;13.60;;;3.00;98.50;;;;;;5016731;28;20500;-74
2020/12/10 00:49:04;;;;;;;24.75;13.93;;;3.00;98.70;;;;;;5013756;28;20042;-74
2020/12/10 00:51:30;;;;;;;23.08;13.07;;;2.90;99.10;;;;;;5015656;28;20096;-74
2020/12/10 00:53:56;;;;;;;24.58;12.93;;;2.90;99.00;;;;;;5021679;28;20034;-74
2020/12/10 00:56:22;;;;;;;22.88;12.50;;;3.00;99.30;;;;;;5015795;28;20511;-74
2020/12/10 00:58:48;;;;;;;25.05;13.60;;;3.00;98.80;;;;;;5013358;28;20037;-74
2020/12/10 01:01:13;;;;;;;20.50;12.38;;;3.00;98.80;;;;;;5008105;28;20042;-75
2020/12/10 01:03:39;;;;;;;25.23;13.30;;;3.00;98.80;;;;;;5009071;28;20049;-74
2020/12/10 01:06:11;;;;;;;21.92;12.57;;;3.10;98.80;;;;;;5014137;28;20496;-74
2020/12/10 01:08:39;;;;;;;22.33;12.32;;;3.10;98.50;;;;;;5014924;28;20069;-75
2020/12/10 01:11:05;;;;;;;24.48;13.88;;;3.00;98.90;;;;;;5006384;28;20050;-74
2020/12/10 01:13:31;;;;;;;22.95;13.15;;;3.10;98.80;;;;;;5023609;28;20100;-76
2020/12/10 01:15:56;;;;;;;23.10;12.40;;;3.10;98.60;;;;;;5025714;28;20042;-75
2020/12/10 01:18:22;;;;;;;21.65;11.80;;;3.10;98.40;;;;;;5024584;28;20046;-75
2020/12/10 01:20:48;;;;;;;25.63;13.57;;;3.10;98.40;;;;;;5027034;28;20042;-76
2020/12/10 01:23:14;;;;;;;21.25;12.48;;;3.10;98.50;;;;;;5016676;28;20045;-75
2020/12/10 01:25:40;;;;;;;23.88;13.18;;;3.10;98.50;;;;;;5022073;28;20042;-75
2020/12/10 01:28:06;;;;;;;24.63;13.95;;;3.10;98.50;;;;;;5019376;28;20488;-76
2020/12/10 01:30:32;;;;;;;21.95;11.95;;;3.00;98.50;;;;;;5014942;28;20034;-75
2020/12/10 01:32:58;;;;;;;21.88;13.15;;;3.00;98.60;;;;;;5018798;28;20045;-75
2020/12/10 01:35:23;;;;;;;23.45;12.95;;;3.00;98.50;;;;;;5009974;28;20049;-75
2020/12/10 01:37:49;;;;;;;26.63;13.27;;;3.00;98.70;;;;;;5012970;28;20031;-75
2020/12/10 01:40:15;;;;;;;21.73;12.45;;;3.00;98.70;;;;;;5015555;28;20046;-75
2020/12/10 01:42:41;;;;;;;23.15;12.85;;;3.00;98.50;;;;;;5013004;28;20491;-75
2020/12/10 01:45:07;;;;;;;24.08;12.90;;;3.00;98.60;;;;;;5017320;28;20034;-75
2020/12/10 01:47:33;;;;;;;22.50;13.13;;;3.00;98.70;;;;;;5023101;28;20030;-75
2020/12/10 01:50:00;;;;;;;24.67;13.00;;;3.00;98.60;;;;;;5023242;28;20128;-75
2020/12/10 01:52:25;;;;;;;23.30;13.30;;;3.00;98.40;;;;;;5028649;28;20130;-75
2020/12/10 01:54:51;;;;;;;22.83;12.75;;;3.00;98.40;;;;;;5020912;28;20041;-75
2020/12/10 01:57:17;;;;;;;22.20;12.30;;;3.00;98.60;;;;;;5015659;28;20486;-76
2020/12/10 01:59:45;;;;;;;21.83;13.13;;;3.00;98.60;;;;;;5011079;28;20042;-74
2020/12/10 02:02:12;;;;;;;20.15;12.15;;;3.00;98.60;;;;;;5013087;28;20041;-74
2020/12/10 02:04:38;;;;;;;21.80;13.05;;;3.10;98.50;;;;;;5021982;28;20056;-75
2020/12/10 02:07:04;;;;;;;21.27;12.20;;;3.00;98.30;;;;;;5024856;28;20041;-75
2020/12/10 02:09:31;;;;;;;23.35;12.60;;;3.00;98.40;;;;;;5016001;28;20045;-74
2020/12/10 02:11:57;;;;;;;23.52;13.32;;;3.00;98.40;;;;;;5012589;28;20085;-75
2020/12/10 02:14:30;;;;;;;20.63;12.15;;;3.00;98.50;;;;;;5012417;28;20046;-75
2020/12/10 02:16:56;;;;;;;19.77;12.00;;;2.90;98.60;;;;;;5024010;28;20041;-75
2020/12/10 02:19:22;;;;;;;22.98;13.23;;;3.00;98.60;;;;;;5015640;28;20052;-77
2020/12/10 02:21:48;;;;;;;20.05;12.13;;;3.00;98.70;;;;;;5014095;28;20042;-74
2020/12/10 02:24:15;;;;;;;22.63;12.60;;;3.00;98.50;;;;;;5016908;28;20504;-75
2020/12/10 02:26:41;;;;;;;23.50;12.48;;;3.00;98.40;;;;;;5018964;28;20041;-75
2020/12/10 02:29:08;;;;;;;25.33;13.43;;;2.90;98.60;;;;;;5013934;28;20034;-75
2020/12/10 02:31:34;;;;;;;25.25;13.27;;;2.90;98.70;;;;;;5014202;28;20042;-75
2020/12/10 02:34:02;;;;;;;21.35;12.38;;;3.00;98.90;;;;;;5014554;28;20063;-75
2020/12/10 02:36:29;;;;;;;20.98;12.45;;;3.00;98.70;;;;;;5015333;28;20080;-76
2020/12/10 02:38:55;;;;;;;22.80;11.90;;;2.90;99.30;;;;;;5017235;28;20435;-76
2020/12/10 02:41:21;;;;;;;20.88;12.07;;;2.90;98.50;;;;;;5012177;28;20068;-76
2020/12/10 02:43:47;;;;;;;20.98;11.82;;;2.90;98.60;;;;;;5012160;28;20041;-76
2020/12/10 02:46:13;;;;;;;23.70;12.60;;;3.00;98.50;;;;;;5010144;28;20053;-74
2020/12/10 02:48:39;;;;;;;23.92;12.50;;;3.00;98.50;;;;;;5017662;28;20033;-75
2020/12/10 02:51:05;;;;;;;20.23;11.73;;;3.00;98.50;;;;;;5009866;28;20696;-75
2020/12/10 02:53:32;;;;;;;23.50;11.70;;;3.00;98.40;;;;;;5016527;28;20407;-75
2020/12/10 02:55:58;;;;;;;17.67;11.10;;;3.00;98.10;;;;;;5012090;28;20042;-75
2020/12/10 02:58:24;;;;;;;20.98;12.50;;;2.90;98.40;;;;;;5014959;28;20045;-76
2020/12/10 03:00:50;;;;;;;20.15;11.68;;;2.90;98.50;;;;;;5010392;28;20526;-76
2020/12/10 03:03:17;;;;;;;17.63;10.73;;;3.00;98.40;;;;;;5015186;28;20042;-78
2020/12/10 03:05:43;;;;;;;19.80;11.38;;;3.00;98.10;;;;;;5024522;28;20434;-75
2020/12/10 03:08:10;;;;;;;20.02;11.38;;;2.90;98.10;;;;;;5011684;28;20025;-75
2020/12/10 03:10:35;;;;;;;21.50;11.38;;;2.90;98.30;;;;;;5015744;28;20034;-76
2020/12/10 03:13:02;;;;;;;21.90;11.82;;;2.90;98.30;;;;;;5018493;28;20041;-75
2020/12/10 03:15:28;;;;;;;20.65;11.98;;;2.90;98.40;;;;;;5021100;28;20038;-74
2020/12/10 03:17:54;;;;;;;21.38;11.93;;;2.90;98.10;;;;;;5018807;28;20049;-74
2020/12/10 03:20:20;;;;;;;21.17;12.00;;;2.90;98.20;;;;;;5026155;28;20033;-74
2020/12/10 03:22:46;;;;;;;21.60;11.95;;;3.00;98.10;;;;;;5017592;28;20417;-76
2020/12/10 03:25:11;;;;;;;23.27;12.30;;;2.90;98.40;;;;;;5023725;28;20025;-75
2020/12/10 03:27:37;;;;;;;22.27;12.43;;;2.90;98.30;;;;;;5013186;28;20060;-74
2020/12/10 03:30:04;;;;;;;23.15;12.35;;;2.90;98.50;;;;;;5014197;28;20041;-75
2020/12/10 03:32:30;;;;;;;22.52;12.95;;;2.90;98.40;;;;;;5021240;28;20046;-74
2020/12/10 03:34:56;;;;;;;22.63;12.57;;;2.90;98.30;;;;;;5016298;28;20041;-75
2020/12/10 03:37:22;;;;;;;23.77;11.82;;;2.90;98.40;;;;;;5018306;28;20562;-76
2020/12/10 03:39:48;;;;;;;22.30;12.85;;;3.00;98.10;;;;;;5024048;28;20466;-76
2020/12/10 03:42:14;;;;;;;20.20;11.63;;;3.00;98.10;;;;;;5032319;28;20043;-75
2020/12/10 03:44:40;;;;;;;19.75;11.60;;;3.00;98.20;;;;;;5022683;28;20073;-76
2020/12/10 03:47:06;;;;;;;21.52;11.65;;;3.00;98.30;;;;;;5014083;28;20034;-76
2020/12/10 03:49:34;;;;;;;20.05;11.25;;;3.00;98.20;;;;;;5013273;28;20042;-75
2020/12/10 03:52:00;;;;;;;19.65;10.90;;;3.00;98.30;;;;;;5013960;28;20052;-75
2020/12/10 03:54:26;;;;;;;18.00;10.93;;;3.00;98.30;;;;;;5012767;28;20042;-76
2020/12/10 03:56:54;;;;;;;20.65;11.85;;;3.00;98.40;;;;;;5014449;28;20046;-74
2020/12/10 03:59:19;;;;;;;18.85;11.25;;;3.00;98.50;;;;;;5018617;28;20045;-75
2020/12/10 04:01:45;;;;;;;17.90;10.38;;;3.00;98.30;;;;;;5018209;28;20042;-75
2020/12/10 04:04:11;;;;;;;19.83;10.55;;;3.00;98.20;;;;;;5012938;28;20129;-75
2020/12/10 04:06:42;;;;;;;20.23;11.45;;;3.00;98.30;;;;;;5015906;28;20037;-75
2020/12/10 04:09:08;;;;;;;20.00;10.20;;;2.90;98.30;;;;;;5012146;28;20028;-75
2020/12/10 04:11:34;;;;;;;21.58;10.77;;;3.00;98.50;;;;;;5018222;28;20476;-75
2020/12/10 04:14:00;;;;;;;21.50;11.57;;;2.90;98.50;;;;;;5015563;28;20308;-76
2020/12/10 04:16:26;;;;;;;25.75;13.35;;;2.90;98.60;;;;;;5016354;28;20410;-75
2020/12/10 04:18:52;;;;;;;24.13;12.57;;;2.90;98.70;;;;;;5013964;28;20038;-75
2020/12/10 04:21:17;;;;;;;19.20;11.18;;;2.90;98.70;;;;;;5011358;28;20492;-73
2020/12/10 04:23:43;;;;;;;21.33;12.30;;;2.90;98.90;;;;;;5011850;28;20557;-75
2020/12/10 04:26:09;;;;;;;21.02;11.80;;;2.90;98.90;;;;;;5013757;28;20116;-75
2020/12/10 04:28:35;;;;;;;20.65;11.45;;;2.90;98.80;;;;;;5018114;28;20038;-75
2020/12/10 04:31:01;;;;;;;20.80;11.30;;;2.90;98.80;;;;;;5016587;28;20488;-75
2020/12/10 04:33:26;;;;;;;19.38;11.00;;;2.90;98.90;;;;;;5011979;28;20188;-75
2020/12/10 04:35:53;;;;;;;19.05;11.68;;;2.90;98.90;;;;;;5013071;28;20507;-75
2020/12/10 04:38:19;;;;;;;20.35;11.15;;;2.90;98.80;;;;;;5012582;28;20080;-75
2020/12/10 04:40:45;;;;;;;21.20;11.88;;;2.90;98.80;;;;;;5020482;28;20132;-75
2020/12/10 04:43:12;;;;;;;20.63;11.80;;;2.90;99.10;;;;;;5008760;28;20064;-76
2020/12/10 04:45:38;;;;;;;23.45;12.77;;;2.90;99.00;;;;;;5014368;28;20088;-76
2020/12/10 04:48:04;;;;;;;20.67;11.50;;;2.90;99.00;;;;;;5016090;28;20144;-75
2020/12/10 04:50:33;;;;;;;23.23;12.23;;;2.90;98.80;;;;;;5015057;28;20378;-74
2020/12/10 04:52:59;;;;;;;24.10;12.48;;;2.90;98.70;;;;;;5014498;28;20427;-75
2020/12/10 04:55:26;;;;;;;24.17;12.93;;;2.90;98.70;;;;;;5025428;28;20533;-76
2020/12/10 04:57:53;;;;;;;23.95;12.55;;;2.90;98.80;;;;;;5016160;28;20124;-76
2020/12/10 05:00:19;;;;;;;21.48;12.20;;;2.80;98.90;;;;;;5021211;28;20494;-75
2020/12/10 05:02:47;;;;;;;22.10;12.50;;;2.80;99.00;;;;;;5017973;28;20045;-75
2020/12/10 05:05:29;;;;;;;25.27;13.27;;;2.80;99.00;;;;;;5021481;28;20068;-75
2020/12/10 05:07:58;;;;;;;22.23;12.52;;;2.80;99.00;;;;;;5017331;28;20455;-75
2020/12/10 05:10:24;;;;;;;22.25;12.02;;;2.70;99.00;;;;;;5013046;28;20411;-75
2020/12/10 05:12:50;;;;;;;23.70;12.57;;;2.70;99.10;;;;;;5010433;28;20823;-75
2020/12/10 05:15:18;;;;;;;22.05;12.45;;;2.70;99.10;;;;;;5019200;28;20129;-75
2020/12/10 05:17:44;;;;;;;26.80;12.57;;;2.70;99.20;;;;;;5017597;28;20111;-76
2020/12/10 05:20:10;;;;;;;25.55;12.93;;;2.70;99.20;;;;;;5015473;28;20057;-75
2020/12/10 05:22:44;;;;;;;25.13;12.77;;;2.60;99.30;;;;;;5012424;28;20414;-75
2020/12/10 05:25:10;;;;;;;23.60;12.23;;;2.60;99.40;;;;;;5013054;28;20029;-76
2020/12/10 05:27:35;;;;;;;22.67;12.50;;;2.60;99.30;;;;;;5020392;28;20482;-76
2020/12/10 05:30:03;;;;;;;24.77;12.68;;;2.60;99.50;;;;;;5018096;28;20518;-76
2020/12/10 05:32:42;;;;;;;24.13;13.35;;;2.60;99.50;;;;;;5018216;28;20025;-75
2020/12/10 05:35:13;;;;;;;24.25;13.20;;;2.50;99.40;;;;;;5017879;28;20039;-75
2020/12/10 05:37:40;;;;;;;22.80;12.45;;;2.50;99.70;;;;;;5016099;28;20453;-76
2020/12/10 05:40:06;;;;;;;25.73;12.20;;;2.50;99.90;;;;;;5017189;28;21030;-75
2020/12/10 05:42:44;;;;;;;23.15;13.00;;;2.50;99.90;;;;;;5031068;28;20042;-75
2020/12/10 05:45:21;;;;;;;22.30;12.70;;;2.50;99.80;;;;;;5011356;28;20041;-75
2020/12/10 05:47:52;;;;;;;23.25;12.90;;;2.50;99.80;;;;;;5014771;28;20053;-75
2020/12/10 05:50:24;;;;;;;23.45;13.02;;;2.50;99.80;;;;;;5015698;28;20042;-75
2020/12/10 05:53:11;;;;;;;26.08;12.48;;;2.50;99.60;;;;;;5022071;28;20037;-74
2020/12/10 05:55:39;;;;;;;20.88;12.35;;;2.50;99.50;;;;;;5018712;28;20590;-74
2020/12/10 05:58:06;;;;;;;19.85;11.63;;;2.50;99.30;;;;;;5017748;28;20133;-75
2020/12/10 06:00:37;;;;;;;23.45;13.02;;;2.50;99.30;;;;;;5010584;28;20045;-74
2020/12/10 06:03:04;;;;;;;22.17;12.38;;;2.40;99.40;;;;;;5018911;28;20459;-75
2020/12/10 06:05:30;;;;;;;22.05;12.55;;;2.40;99.60;;;;;;5010436;28;20125;-74
2020/12/10 06:08:07;;;;;;;24.58;13.32;;;2.30;99.80;;;;;;5013968;28;20104;-74
2020/12/10 06:10:40;;;;;;;26.30;13.70;;;2.30;99.90;;;;;;5010041;28;20470;-74
2020/12/10 06:13:07;;;;;;;26.23;13.23;;;2.40;99.90;;;;;;5013890;28;20026;-76
2020/12/10 06:15:33;;;;;;;24.88;13.63;;;2.40;99.80;;;;;;5009541;28;20132;-74
2020/12/10 06:18:10;;;;;;;30.00;14.02;;;2.30;99.60;;;;;;5007874;28;20087;-73
2020/12/10 06:20:47;;;;;;;24.88;13.23;;;2.30;99.90;;;;;;5012350;28;20041;-75
2020/12/10 06:23:30;;;;;;;24.60;13.73;;;2.30;99.90;;;;;;5021393;28;20145;-75
2020/12/10 06:25:57;;;;;;;29.95;14.93;;;2.20;99.80;;;;;;5016247;28;20033;-74
2020/12/10 06:28:24;;;;;;;27.23;13.43;;;2.20;99.90;;;;;;5026951;28;20049;-74
2020/12/10 06:31:10;;;;;;;26.80;13.82;;;2.20;99.90;;;;;;5014233;28;20164;-75
2020/12/10 06:33:42;;;;;;;30.70;14.73;;;2.10;99.90;;;;;;5013401;28;20042;-74
2020/12/10 06:36:22;;;;;;;25.65;14.38;;;2.10;99.90;;;;;;5010964;28;20038;-74
2020/12/10 06:38:49;;;;;;;22.95;12.77;;;2.00;99.90;;;;;;5015141;28;20037;-75
2020/12/10 06:41:15;;;;;;;27.73;15.15;;;2.00;99.90;;;;;;5015964;28;20125;-74
2020/12/10 06:43:41;;;;;;;25.70;14.77;;;2.00;99.90;;;;;;5009053;28;20605;-74
2020/12/10 06:46:07;;;;;;;26.67;14.88;;;1.90;99.90;;;;;;5009602;28;20030;-74
2020/12/10 06:48:51;;;;;;;30.98;15.18;;;2.00;99.90;;;;;;5010853;28;20109;-73
2020/12/10 06:51:19;;;;;;;27.45;14.90;;;2.00;99.90;;;;;;5009049;28;20403;-73
2020/12/10 06:54:07;;;;;;;28.02;14.13;;;2.00;99.90;;;;;;5014690;28;20522;-74
2020/12/10 06:56:56;;;;;;;26.52;12.18;;;2.00;99.90;;;;;;5014369;28;20025;-74
2020/12/10 06:59:43;;;;;;;29.45;14.55;;;2.00;99.90;;;;;;5018200;28;20025;-74
2020/12/10 07:02:21;;;;;;;22.92;12.82;;;2.00;99.90;;;;;;5013523;28;20517;-73
2020/12/10 07:04:53;;;;;;;26.63;13.48;;;2.00;99.90;;;;;;5015814;28;20037;-73
2020/12/10 07:07:22;;;;;;;24.33;12.50;;;2.00;99.90;;;;;;4994415;28;20045;-74
2020/12/10 07:10:08;;;;;;;25.35;13.27;;;2.10;99.90;;;;;;5011196;28;20041;-74
2020/12/10 07:12:41;;;;;;;25.70;12.52;;;2.10;99.90;;;;;;5009836;28;20514;-74
2020/12/10 07:15:25;;;;;;;24.02;12.75;;;2.10;99.90;;;;;;5018331;28;20026;-74
2020/12/10 07:17:52;;;;;;;26.50;14.32;;;2.10;99.90;;;;;;5014188;28;20391;-74
2020/12/10 07:20:18;;;;;;;24.23;12.30;;;2.10;99.90;;;;;;5017890;28;20057;-75
2020/12/10 07:22:44;;;;;;;23.90;12.70;;;2.10;99.90;;;;;;5016604;28;20038;-74
2020/12/10 07:25:10;;;;;;;25.15;13.13;;;2.10;99.90;;;;;;5014064;28;20057;-73
2020/12/10 07:27:40;;;;;;;25.40;13.95;;;2.10;99.80;;;;;;5019713;28;20033;-74
2020/12/10 07:30:10;;;;;;;27.65;13.48;;;2.10;99.90;;;;;;5018290;28;20038;-73
2020/12/10 07:32:36;;;;;;;26.85;13.85;;;2.00;99.70;;;;;;5012936;28;20523;-74
2020/12/10 07:35:02;;;;;;;23.42;12.80;;;2.00;99.80;;;;;;5015444;28;20056;-73
2020/12/10 07:37:31;;;;;;;25.73;13.90;;;2.00;99.60;;;;;;5021775;28;20045;-74
2020/12/10 07:39:58;;;;;;;22.73;12.93;;;2.00;99.80;;;;;;5013265;28;20310;-73
2020/12/10 07:42:24;;;;;;;24.75;13.23;;;2.00;99.90;;;;;;5012390;28;20054;-74
2020/12/10 07:44:50;;;;;;;32.65;16.38;;;2.00;99.80;;;;;;5016625;28;20132;-74
2020/12/10 07:47:15;;;;;;;30.45;15.48;;;2.00;99.90;;;;;;5011532;28;20389;-74
2020/12/10 07:49:41;;;;;;;25.30;13.77;;;2.10;99.80;;;;;;5022539;28;20028;-75
2020/12/10 07:52:08;;;;;;;25.42;14.30;;;2.00;99.90;;;;;;5006787;28;20049;-73
2020/12/10 07:54:45;;;;;;;26.58;13.70;;;2.10;99.90;;;;;;5020138;28;20400;-74
2020/12/10 07:57:27;;;;;;;24.70;13.13;;;2.10;99.80;;;;;;5021807;28;20065;-73
2020/12/10 08:00:01;;;;;;;24.00;12.55;;;2.10;99.70;;;;;;5012565;28;20033;-74
2020/12/10 08:02:46;;;;;;;25.00;13.25;;;2.20;99.40;;;;;;5017258;28;20051;-74
2020/12/10 08:05:16;;;;;;;27.25;13.48;;;2.20;99.50;;;;;;5018000;28;20629;-75
2020/12/10 08:07:51;;;;;;;24.95;13.50;;;2.20;99.50;;;;;;5023810;28;20037;-75
2020/12/10 08:10:25;;;;;;;26.83;13.75;;;2.20;99.70;;;;;;5022878;28;20072;-74
2020/12/10 08:13:16;;;;;;;25.45;13.48;;;2.30;99.60;;;;;;5021773;28;20065;-73
2020/12/10 08:15:44;;;;;;;28.65;13.57;;;2.30;99.60;;;;;;5017405;28;20041;-75
2020/12/10 08:18:13;;;;;;;28.55;14.43;;;2.30;99.50;;;;;;5017611;28;20075;-75
2020/12/10 08:20:48;;;;;;;32.92;14.73;;;2.40;99.60;;;;;;5015274;28;20057;-74
2020/12/10 08:23:14;;;;;;;23.13;12.73;;;2.40;99.50;;;;;;5015882;28;20041;-74
2020/12/10 08:25:41;;;;;;;26.15;14.13;;;2.40;99.50;;;;;;5012191;28;20033;-74
2020/12/10 08:28:08;;;;;;;21.17;12.38;;;2.50;99.30;;;;;;5013316;28;20103;-74
2020/12/10 08:30:35;;;;;;;23.23;13.27;;;2.50;99.00;;;;;;5016683;28;20072;-75
2020/12/10 08:33:02;;;;;;;22.63;12.23;;;2.60;99.10;;;;;;5013604;28;20360;-74
2020/12/10 08:35:39;;;;;;;22.27;12.00;;;2.60;98.90;;;;;;5020869;28;20033;-75
2020/12/10 08:38:06;;;;;;;25.42;12.35;;;2.70;98.40;;;;;;5009793;28;20116;-75
2020/12/10 08:40:35;;;;;;;21.05;11.63;;;2.70;98.60;;;;;;5011741;28;20049;-74
2020/12/10 08:43:12;;;;;;;22.13;12.02;;;2.70;98.20;;;;;;5018318;28;20396;-74
2020/12/10 08:45:44;;;;;;;25.48;12.38;;;2.70;98.00;;;;;;5016786;28;20458;-74
2020/12/10 08:48:25;;;;;;;24.02;12.00;;;2.70;98.30;;;;;;5030741;28;20091;-74
2020/12/10 08:50:59;;;;;;;19.23;10.43;;;2.70;98.20;;;;;;5019653;28;20097;-74
2020/12/10 08:53:25;;;;;;;20.35;10.80;;;2.70;98.30;;;;;;5029343;28;20039;-75
2020/12/10 08:55:54;;;;;;;18.70;11.43;;;2.70;98.20;;;;;;5014795;28;20117;-75
2020/12/10 08:58:22;;;;;;;19.50;11.38;;;2.80;98.20;;;;;;5011464;28;20480;-74
2020/12/10 09:00:48;;;;;;;22.75;11.07;;;2.80;98.00;;;;;;5015937;28;20413;-75
2020/12/10 09:03:14;;;;;;;19.58;10.88;;;2.90;97.70;;;;;;5014270;28;20042;-74
2020/12/10 09:05:41;;;;;;;16.55;9.50;;;3.00;97.60;;;;;;5021914;28;20028;-74
2020/12/10 09:08:06;;;;;;;16.02;9.90;;;3.10;97.10;;;;;;5019831;28;20029;-75
2020/12/10 09:10:32;;;;;;;18.42;9.70;;;3.20;96.80;;;;;;5015409;28;20030;-75
2020/12/10 09:12:58;;;;;;;15.80;8.88;;;3.30;96.20;;;;;;5022048;28;20120;-76
2020/12/10 09:15:25;;;;;;;33.53;9.98;;;3.40;96.10;;;;;;5015776;28;20140;-75
2020/12/10 09:17:51;;;;;;;13.95;8.13;;;3.40;95.10;;;;;;5021121;28;20048;-75
2020/12/10 09:20:18;;;;;;;11.30;6.55;;;3.30;95.30;;;;;;5022087;28;20022;-74
2020/12/10 09:22:43;;;;;;;12.05;7.13;;;3.30;94.30;;;;;;5018589;28;20415;-75
2020/12/10 09:25:09;;;;;;;11.55;7.15;;;3.40;94.40;;;;;;5020902;28;20510;-73
2020/12/10 09:27:35;;;;;;;14.13;7.13;;;3.40;94.80;;;;;;5015604;28;20116;-74
2020/12/10 09:30:03;;;;;;;12.38;6.93;;;3.50;94.20;;;;;;5016332;28;20500;-75
2020/12/10 09:32:34;;;;;;;10.93;6.60;;;3.50;93.70;;;;;;5019548;28;20041;-74
2020/12/10 09:35:04;;;;;;;10.55;6.25;;;3.40;94.20;;;;;;5024713;28;20059;-75
2020/12/10 09:37:30;;;;;;;10.93;6.25;;;3.40;93.40;;;;;;5023814;28;20034;-74
2020/12/10 09:39:56;;;;;;;10.95;6.10;;;3.30;93.80;;;;;;5014250;28;20045;-75
2020/12/10 09:42:23;;;;;;;14.00;6.57;;;3.40;93.50;;;;;;5023837;28;20045;-74
2020/12/10 09:44:49;;;;;;;11.40;6.18;;;3.40;93.00;;;;;;5022099;28;20208;-75
2020/12/10 09:47:15;;;;;;;10.93;5.60;;;3.30;93.20;;;;;;5022067;28;20034;-74
2020/12/10 09:49:41;;;;;;;9.82;5.68;;;3.40;93.20;;;;;;5029423;28;20211;-74
2020/12/10 09:52:08;;;;;;;10.80;5.15;;;3.40;92.60;;;;;;5013997;28;20033;-75
2020/12/10 09:59:31;;;;;;;9.52;5.60;;;;;;;;;;5023749;28;20041;-74
2020/12/10 10:01:57;;;;;;;9.95;5.50;;;;;;;;;;5012407;28;20022;-75
2020/12/10 10:04:25;;;;;;;9.32;5.40;;;3.50;92.60;;;;;;5018609;28;20140;-74
2020/12/10 10:06:51;;;;;;;9.82;5.47;;;3.50;92.80;;;;;;5021289;28;20038;-74
2020/12/10 10:09:19;;;;;;;9.88;6.25;;;3.60;92.70;;;;;;5020246;28;20044;-74
2020/12/10 10:11:45;;;;;;;10.02;5.75;;;3.40;93.00;;;;;;5013725;28;20048;-74
2020/12/10 10:14:11;;;;;;;9.40;6.07;;;3.20;93.70;;;;;;5019290;28;20042;-74
2020/12/10 10:16:37;;;;;;;10.27;6.35;;;3.30;93.50;;;;;;5025615;28;20133;-74
2020/12/10 10:19:02;;;;;;;12.60;6.97;;;3.20;93.90;;;;;;5006345;28;20045;-74
2020/12/10 10:21:28;;;;;;;11.73;6.90;;;3.20;93.70;;;;;;5005761;28;20052;-75
2020/12/10 10:23:55;;;;;;;10.90;6.30;;;3.20;93.80;;;;;;5023749;28;20116;-74
2020/12/10 10:26:21;;;;;;;9.45;5.60;;;3.20;93.50;;;;;;5010002;28;20046;-74
2020/12/10 10:28:50;;;;;;;8.90;5.38;;;3.50;93.50;;;;;;5013530;28;20492;-74
2020/12/10 10:31:15;;;;;;;10.65;5.93;;;3.60;93.30;;;;;;5013056;28;20034;-74
2020/12/10 10:33:41;;;;;;;9.82;5.80;;;3.70;92.90;;;;;;5014402;28;20087;-74
2020/12/10 10:36:08;;;;;;;9.90;5.47;;;3.80;93.00;;;;;;5019332;28;20798;-75
2020/12/10 10:38:34;;;;;;;9.15;5.80;;;3.70;92.10;;;;;;5012950;28;20053;-75
2020/12/10 10:40:59;;;;;;;9.25;5.15;;;3.70;92.20;;;;;;5004512;28;20050;-74
2020/12/10 10:43:25;;;;;;;12.45;5.50;;;3.70;91.80;;;;;;5014172;28;20454;-74
2020/12/10 10:45:51;;;;;;;8.68;4.78;;;3.70;91.90;;;;;;5010368;28;20053;-75
2020/12/10 10:48:17;;;;;;;9.73;5.22;;;3.70;92.20;;;;;;5018999;28;20551;-74
2020/12/10 10:50:46;;;;;;;8.68;4.93;;;3.80;91.90;;;;;;5018106;28;20044;-75
2020/12/10 10:53:12;;;;;;;7.95;4.95;;;3.70;91.80;;;;;;5018125;28;20547;-75
2020/12/10 10:55:41;;;;;;;9.02;5.30;;;3.80;91.60;;;;;;5013980;28;20180;-75
2020/12/10 10:58:07;;;;;;;8.93;5.05;;;3.70;91.90;;;;;;5016509;28;20085;-74
2020/12/10 11:00:33;;;;;;;8.77;5.85;;;;;;;;;;5018687;28;20123;-74
2020/12/10 11:02:59;;;;;;;10.07;5.82;;;3.50;92.40;;;;;;5019529;28;20165;-73
2020/12/10 11:05:24;;;;;;;10.63;5.97;;;3.60;92.70;;;;;;5011834;28;20196;-73
2020/12/10 11:07:50;;;;;;;10.93;5.82;;;3.50;92.70;;;;;;5018243;28;20030;-74
2020/12/10 11:10:21;;;;;;;7.78;4.78;;;3.50;92.20;;;;;;5014325;28;20498;-73
2020/12/10 11:12:47;;;;;;;;;;;3.50;92.40;;;;;;5015167;28;20048;-74
2020/12/10 11:15:14;;;;;;;11.70;5.88;;;3.30;94.80;;;;;;5022627;28;19916;-74
2020/12/10 11:17:40;;;;;;;9.45;5.45;;;3.30;93.10;;;;;;5023966;28;20415;-74
2020/12/10 11:20:06;;;;;;;11.73;6.55;;;3.20;93.50;;;;;;5004664;28;20042;-74
2020/12/10 11:22:34;;;;;;;9.35;5.53;;;3.30;93.70;;;;;;5005861;28;20034;-74
2020/12/10 11:25:00;;;;;;;9.57;5.70;;;3.50;93.60;;;;;;5010360;28;20475;-74
2020/12/10 11:27:29;;;;;;;9.70;5.32;;;3.60;92.90;;;;;;5011935;28;20033;-73
2020/12/10 11:29:56;;;;;;;9.10;5.40;;;;;;;;;;5031677;28;20124;-74
2020/12/10 11:32:21;;;;;;;9.05;4.90;;;3.60;92.30;;;;;;5024565;28;20084;-74
2020/12/10 11:34:47;;;;;;;7.82;5.00;;;3.50;92.60;;;;;;5024129;28;20506;-73
2020/12/10 11:37:14;;;;;;;9.73;5.55;;;3.50;93.10;;;;;;5000683;28;20407;-74
2020/12/10 11:39:40;;;;;;;8.88;5.35;;;3.50;92.90;;;;;;5020217;28;20030;-74
2020/12/10 11:42:05;;;;;;;10.65;5.72;;;3.60;93.20;;;;;;4998895;28;20046;-74
2020/12/10 11:44:32;;;;;;;10.63;5.72;;;3.60;92.90;;;;;;5026319;28;20569;-73
2020/12/10 11:46:57;;;;;;;9.77;5.43;;;3.70;92.90;;;;;;5016404;28;20059;-73
2020/12/10 11:49:23;;;;;;;11.23;6.28;;;3.80;92.50;;;;;;5013670;28;20045;-74
2020/12/10 11:51:49;;;;;;;10.98;6.65;;;3.90;92.50;;;;;;5017669;28;20029;-74
2020/12/10 11:54:14;;;;;;;10.38;5.43;;;4.30;92.10;;;;;;5017014;28;20052;-74
2020/12/10 11:56:41;;;;;;;14.13;6.35;;;3.80;92.40;;;;;;5018187;28;20221;-73
2020/12/10 11:59:07;;;;;;;11.32;6.40;;;3.70;92.80;;;;;;5014865;28;20038;-74
2020/12/10 12:01:37;;;;;;;10.18;5.93;;;3.70;92.70;;;;;;5016591;28;20434;-74
2020/12/10 12:04:03;;;;;;;11.45;6.70;;;3.70;93.00;;;;;;5019064;28;20040;-74
2020/12/10 12:06:28;;;;;;;11.15;5.65;;;3.80;92.40;;;;;;5023377;28;20037;-75
2020/12/10 12:08:54;;;;;;;9.70;5.85;;;3.70;92.50;;;;;;5026163;28;20033;-74
2020/12/10 12:11:24;;;;;;;10.45;5.72;;;3.90;91.90;;;;;;5020976;28;20100;-75
2020/12/10 12:13:50;;;;;;;10.98;5.60;;;4.90;92.30;;;;;;5015578;28;20034;-74
2020/12/10 12:16:16;;;;;;;10.30;5.65;;;3.60;92.30;;;;;;5021775;28;20037;-74
2020/12/10 12:18:41;;;;;;;9.27;5.55;;;3.70;92.30;;;;;;5024257;28;20056;-74
2020/12/10 12:21:07;;;;;;;9.80;6.03;;;3.80;91.90;;;;;;5022924;28;20042;-75
2020/12/10 12:23:33;;;;;;;11.85;6.68;;;3.80;92.00;;;;;;5015939;28;20495;-73
2020/12/10 12:26:01;;;;;;;11.20;5.82;;;3.80;91.80;;;;;;5027383;28;20053;-74
2020/12/10 12:28:27;;;;;;;9.48;6.00;;;3.70;92.30;;;;;;5020878;28;20159;-72
2020/12/10 12:30:53;;;;;;;9.85;5.88;;;3.70;92.10;;;;;;5020381;28;20044;-74
2020/12/10 12:33:18;;;;;;;10.27;5.95;;;3.80;92.60;;;;;;5010937;28;20416;-74
2020/12/10 12:35:46;;;;;;;10.95;6.00;;;3.90;92.00;;;;;;5021010;28;20104;-74
2020/12/10 12:38:15;;;;;;;9.25;5.80;;;3.80;92.10;;;;;;5017299;28;20067;-74
2020/12/10 12:40:40;;;;;;;10.35;6.35;;;3.80;92.50;;;;;;5020995;28;20038;-74
2020/12/10 12:43:06;;;;;;;9.98;6.10;;;3.80;92.30;;;;;;5017702;28;20079;-73
2020/12/10 12:45:33;;;;;;;9.60;5.70;;;3.80;92.40;;;;;;5018698;28;20522;-74
2020/12/10 12:47:59;;;;;;;10.30;6.22;;;3.70;92.60;;;;;;5025195;28;20073;-74
2020/12/10 12:50:28;;;;;;;11.88;6.30;;;3.60;92.60;;;;;;5020977;28;20498;-73